sensor_id;sensor_type;location;lat;lon;timestamp;P1;durP1;ratioP1;P2;durP2;ratioP2
211;SDS011;16228;48.800;9.002;2023-07-31T00:00:05;6.80;;;2.50;;
211;SDS011;16228;48.800;9.002;2023-07-31T00:02:34;4.37;;;2.73;;
211;SDS011;16228;48.800;9.002;2023-07-31T00:05:02;4.17;;;2.83;;
211;SDS011;16228;48.800;9.002;2023-07-31T00:07:31;7.10;;;3.40;;
211;SDS011;16228;48.800;9.002;2023-07-31T00:09:58;4.73;;;3.07;;
211;SDS011;16228;48.800;9.002;2023-07-31T00:12:25;4.63;;;3.70;;
211;SDS011;16228;48.800;9.002;2023-07-31T00:14:52;7.50;;;4.80;;
211;SDS011;16228;48.800;9.002;2023-07-31T00:17:19;6.07;;;3.50;;
211;SDS011;16228;48.800;9.002;2023-07-31T00:19:46;4.13;;;3.33;;
211;SDS011;16228;48.800;9.002;2023-07-31T00:22:15;3.13;;;2.83;;
211;SDS011;16228;48.800;9.002;2023-07-31T00:24:44;5.73;;;3.20;;
211;SDS011;16228;48.800;9.002;2023-07-31T00:27:11;4.83;;;4.43;;
211;SDS011;16228;48.800;9.002;2023-07-31T00:29:38;5.20;;;2.83;;
211;SDS011;16228;48.800;9.002;2023-07-31T00:32:05;5.70;;;2.97;;
211;SDS011;16228;48.800;9.002;2023-07-31T00:34:33;4.73;;;3.53;;
211;SDS011;16228;48.800;9.002;2023-07-31T00:37:00;2.77;;;2.53;;
211;SDS011;16228;48.800;9.002;2023-07-31T00:39:27;9.07;;;3.10;;
211;SDS011;16228;48.800;9.002;2023-07-31T00:41:55;5.63;;;3.83;;
211;SDS011;16228;48.800;9.002;2023-07-31T00:44:22;5.93;;;4.17;;
211;SDS011;16228;48.800;9.002;2023-07-31T00:46:49;4.47;;;2.70;;
211;SDS011;16228;48.800;9.002;2023-07-31T00:49:16;6.60;;;2.80;;
211;SDS011;16228;48.800;9.002;2023-07-31T00:51:43;4.50;;;3.53;;
211;SDS011;16228;48.800;9.002;2023-07-31T00:54:11;4.40;;;2.93;;
211;SDS011;16228;48.800;9.002;2023-07-31T00:56:38;6.47;;;2.93;;
211;SDS011;16228;48.800;9.002;2023-07-31T00:59:08;6.63;;;3.33;;
211;SDS011;16228;48.800;9.002;2023-07-31T01:01:35;5.43;;;2.70;;
211;SDS011;16228;48.800;9.002;2023-07-31T01:04:02;4.80;;;3.07;;
211;SDS011;16228;48.800;9.002;2023-07-31T01:06:30;6.93;;;4.03;;
211;SDS011;16228;48.800;9.002;2023-07-31T01:09:03;5.00;;;2.87;;
211;SDS011;16228;48.800;9.002;2023-07-31T01:11:38;6.07;;;2.70;;
211;SDS011;16228;48.800;9.002;2023-07-31T01:14:11;4.80;;;3.50;;
211;SDS011;16228;48.800;9.002;2023-07-31T01:16:38;2.90;;;2.70;;
211;SDS011;16228;48.800;9.002;2023-07-31T01:19:05;5.93;;;3.60;;
211;SDS011;16228;48.800;9.002;2023-07-31T01:21:41;4.10;;;3.30;;
211;SDS011;16228;48.800;9.002;2023-07-31T01:24:23;5.07;;;3.10;;
211;SDS011;16228;48.800;9.002;2023-07-31T01:26:58;4.07;;;2.40;;
211;SDS011;16228;48.800;9.002;2023-07-31T01:29:32;4.87;;;2.60;;
211;SDS011;16228;48.800;9.002;2023-07-31T01:32:05;4.33;;;2.90;;
211;SDS011;16228;48.800;9.002;2023-07-31T01:34:34;4.23;;;3.83;;
211;SDS011;16228;48.800;9.002;2023-07-31T01:37:01;4.70;;;3.37;;
211;SDS011;16228;48.800;9.002;2023-07-31T01:39:29;3.43;;;3.13;;
211;SDS011;16228;48.800;9.002;2023-07-31T01:41:57;5.10;;;3.90;;
211;SDS011;16228;48.800;9.002;2023-07-31T01:44:24;4.13;;;3.00;;
211;SDS011;16228;48.800;9.002;2023-07-31T01:46:51;6.70;;;3.57;;
211;SDS011;16228;48.800;9.002;2023-07-31T01:49:18;4.77;;;3.17;;
211;SDS011;16228;48.800;9.002;2023-07-31T01:51:45;2.93;;;2.43;;
211;SDS011;16228;48.800;9.002;2023-07-31T01:54:12;7.30;;;3.77;;
211;SDS011;16228;48.800;9.002;2023-07-31T01:56:39;4.53;;;2.90;;
211;SDS011;16228;48.800;9.002;2023-07-31T01:59:07;4.07;;;3.67;;
211;SDS011;16228;48.800;9.002;2023-07-31T02:01:34;3.63;;;3.33;;
211;SDS011;16228;48.800;9.002;2023-07-31T02:04:01;3.83;;;2.67;;
211;SDS011;16228;48.800;9.002;2023-07-31T02:06:30;4.30;;;3.90;;
211;SDS011;16228;48.800;9.002;2023-07-31T02:08:57;4.37;;;3.53;;
211;SDS011;16228;48.800;9.002;2023-07-31T02:11:23;5.20;;;2.83;;
211;SDS011;16228;48.800;9.002;2023-07-31T02:13:50;5.27;;;3.10;;
211;SDS011;16228;48.800;9.002;2023-07-31T02:16:19;4.10;;;3.50;;
211;SDS011;16228;48.800;9.002;2023-07-31T02:18:46;2.77;;;2.57;;
211;SDS011;16228;48.800;9.002;2023-07-31T02:21:13;3.97;;;3.67;;
211;SDS011;16228;48.800;9.002;2023-07-31T02:23:40;4.50;;;3.07;;
211;SDS011;16228;48.800;9.002;2023-07-31T02:26:06;4.73;;;3.07;;
211;SDS011;16228;48.800;9.002;2023-07-31T02:28:33;5.67;;;3.47;;
211;SDS011;16228;48.800;9.002;2023-07-31T02:31:00;3.50;;;3.20;;
211;SDS011;16228;48.800;9.002;2023-07-31T02:33:29;4.23;;;3.30;;
211;SDS011;16228;48.800;9.002;2023-07-31T02:35:56;3.53;;;3.23;;
211;SDS011;16228;48.800;9.002;2023-07-31T02:38:23;4.40;;;3.47;;
211;SDS011;16228;48.800;9.002;2023-07-31T02:40:49;5.03;;;3.07;;
211;SDS011;16228;48.800;9.002;2023-07-31T02:43:16;4.77;;;2.93;;
211;SDS011;16228;48.800;9.002;2023-07-31T02:45:43;4.60;;;3.60;;
211;SDS011;16228;48.800;9.002;2023-07-31T02:48:10;7.87;;;3.30;;
211;SDS011;16228;48.800;9.002;2023-07-31T02:50:38;5.07;;;3.17;;
211;SDS011;16228;48.800;9.002;2023-07-31T02:53:05;4.97;;;3.47;;
211;SDS011;16228;48.800;9.002;2023-07-31T02:55:32;6.97;;;3.47;;
211;SDS011;16228;48.800;9.002;2023-07-31T02:57:59;5.50;;;3.33;;
211;SDS011;16228;48.800;9.002;2023-07-31T03:00:26;4.20;;;3.20;;
211;SDS011;16228;48.800;9.002;2023-07-31T03:02:54;5.53;;;3.00;;
211;SDS011;16228;48.800;9.002;2023-07-31T03:05:21;3.37;;;3.07;;
211;SDS011;16228;48.800;9.002;2023-07-31T03:07:49;3.90;;;3.30;;
211;SDS011;16228;48.800;9.002;2023-07-31T03:10:16;5.07;;;3.27;;
211;SDS011;16228;48.800;9.002;2023-07-31T03:12:46;6.73;;;3.27;;
211;SDS011;16228;48.800;9.002;2023-07-31T03:15:13;8.20;;;3.10;;
211;SDS011;16228;48.800;9.002;2023-07-31T03:17:40;3.67;;;3.37;;
211;SDS011;16228;48.800;9.002;2023-07-31T03:20:07;5.20;;;3.00;;
211;SDS011;16228;48.800;9.002;2023-07-31T03:22:34;4.17;;;2.93;;
211;SDS011;16228;48.800;9.002;2023-07-31T03:25:03;3.63;;;2.87;;
211;SDS011;16228;48.800;9.002;2023-07-31T03:27:30;3.67;;;2.57;;
211;SDS011;16228;48.800;9.002;2023-07-31T03:29:59;3.77;;;2.30;;
211;SDS011;16228;48.800;9.002;2023-07-31T03:32:26;2.20;;;1.83;;
211;SDS011;16228;48.800;9.002;2023-07-31T03:34:53;3.43;;;1.87;;
211;SDS011;16228;48.800;9.002;2023-07-31T03:37:20;4.13;;;2.53;;
211;SDS011;16228;48.800;9.002;2023-07-31T03:39:47;2.90;;;1.83;;
211;SDS011;16228;48.800;9.002;2023-07-31T03:42:15;5.20;;;2.27;;
211;SDS011;16228;48.800;9.002;2023-07-31T03:44:42;2.53;;;2.00;;
211;SDS011;16228;48.800;9.002;2023-07-31T03:47:09;2.27;;;1.90;;
211;SDS011;16228;48.800;9.002;2023-07-31T03:49:36;3.53;;;1.80;;
211;SDS011;16228;48.800;9.002;2023-07-31T03:52:03;3.87;;;1.83;;
211;SDS011;16228;48.800;9.002;2023-07-31T03:54:30;3.53;;;1.80;;
211;SDS011;16228;48.800;9.002;2023-07-31T03:56:58;2.63;;;1.97;;
211;SDS011;16228;48.800;9.002;2023-07-31T03:59:26;2.87;;;1.73;;
211;SDS011;16228;48.800;9.002;2023-07-31T04:01:53;4.47;;;2.30;;
211;SDS011;16228;48.800;9.002;2023-07-31T04:04:20;4.60;;;2.23;;
211;SDS011;16228;48.800;9.002;2023-07-31T04:06:47;2.90;;;1.60;;
211;SDS011;16228;48.800;9.002;2023-07-31T04:09:14;3.77;;;2.13;;
211;SDS011;16228;48.800;9.002;2023-07-31T04:11:41;4.60;;;2.10;;
211;SDS011;16228;48.800;9.002;2023-07-31T04:14:08;4.50;;;1.90;;
211;SDS011;16228;48.800;9.002;2023-07-31T04:16:37;3.47;;;1.93;;
211;SDS011;16228;48.800;9.002;2023-07-31T04:19:04;2.43;;;1.83;;
211;SDS011;16228;48.800;9.002;2023-07-31T04:21:31;6.60;;;1.83;;
211;SDS011;16228;48.800;9.002;2023-07-31T04:23:57;4.47;;;1.80;;
211;SDS011;16228;48.800;9.002;2023-07-31T04:26:24;5.90;;;2.27;;
211;SDS011;16228;48.800;9.002;2023-07-31T04:28:51;4.63;;;2.10;;
211;SDS011;16228;48.800;9.002;2023-07-31T04:31:18;3.10;;;1.80;;
211;SDS011;16228;48.800;9.002;2023-07-31T04:33:47;5.47;;;2.30;;
211;SDS011;16228;48.800;9.002;2023-07-31T04:36:13;4.83;;;2.00;;
211;SDS011;16228;48.800;9.002;2023-07-31T04:38:40;4.00;;;2.63;;
211;SDS011;16228;48.800;9.002;2023-07-31T04:41:07;2.53;;;1.53;;
211;SDS011;16228;48.800;9.002;2023-07-31T04:43:34;4.17;;;1.97;;
211;SDS011;16228;48.800;9.002;2023-07-31T04:46:04;4.87;;;2.30;;
211;SDS011;16228;48.800;9.002;2023-07-31T04:48:31;4.03;;;1.80;;
211;SDS011;16228;48.800;9.002;2023-07-31T04:50:59;2.63;;;2.07;;
211;SDS011;16228;48.800;9.002;2023-07-31T04:53:26;2.67;;;1.83;;
211;SDS011;16228;48.800;9.002;2023-07-31T04:55:53;3.00;;;2.00;;
211;SDS011;16228;48.800;9.002;2023-07-31T04:58:20;6.00;;;1.97;;
211;SDS011;16228;48.800;9.002;2023-07-31T05:00:47;3.33;;;2.13;;
211;SDS011;16228;48.800;9.002;2023-07-31T05:03:14;3.23;;;1.90;;
211;SDS011;16228;48.800;9.002;2023-07-31T05:05:41;6.33;;;2.80;;
211;SDS011;16228;48.800;9.002;2023-07-31T05:08:09;4.73;;;1.90;;
211;SDS011;16228;48.800;9.002;2023-07-31T05:10:36;4.80;;;1.90;;
211;SDS011;16228;48.800;9.002;2023-07-31T05:13:03;3.17;;;2.00;;
211;SDS011;16228;48.800;9.002;2023-07-31T05:15:30;2.00;;;1.90;;
211;SDS011;16228;48.800;9.002;2023-07-31T05:17:57;4.30;;;2.07;;
211;SDS011;16228;48.800;9.002;2023-07-31T05:20:24;4.60;;;2.10;;
211;SDS011;16228;48.800;9.002;2023-07-31T05:22:52;1.90;;;1.63;;
211;SDS011;16228;48.800;9.002;2023-07-31T05:25:21;3.03;;;1.90;;
211;SDS011;16228;48.800;9.002;2023-07-31T05:27:48;3.07;;;2.00;;
211;SDS011;16228;48.800;9.002;2023-07-31T05:30:15;5.37;;;1.93;;
211;SDS011;16228;48.800;9.002;2023-07-31T05:32:42;3.30;;;1.90;;
211;SDS011;16228;48.800;9.002;2023-07-31T05:35:09;2.80;;;1.87;;
211;SDS011;16228;48.800;9.002;2023-07-31T05:37:35;2.00;;;1.77;;
211;SDS011;16228;48.800;9.002;2023-07-31T05:40:03;4.00;;;2.17;;
211;SDS011;16228;48.800;9.002;2023-07-31T05:42:32;2.43;;;1.60;;
211;SDS011;16228;48.800;9.002;2023-07-31T05:44:59;4.83;;;2.20;;
211;SDS011;16228;48.800;9.002;2023-07-31T05:47:26;2.73;;;1.73;;
211;SDS011;16228;48.800;9.002;2023-07-31T05:49:53;2.57;;;1.50;;
211;SDS011;16228;48.800;9.002;2023-07-31T05:52:20;3.57;;;1.50;;
211;SDS011;16228;48.800;9.002;2023-07-31T05:54:47;1.80;;;1.47;;
211;SDS011;16228;48.800;9.002;2023-07-31T05:57:14;6.37;;;1.77;;
211;SDS011;16228;48.800;9.002;2023-07-31T05:59:43;4.53;;;2.03;;
211;SDS011;16228;48.800;9.002;2023-07-31T06:02:09;3.57;;;1.60;;
211;SDS011;16228;48.800;9.002;2023-07-31T06:04:36;3.00;;;1.90;;
211;SDS011;16228;48.800;9.002;2023-07-31T06:07:04;3.93;;;1.70;;
211;SDS011;16228;48.800;9.002;2023-07-31T06:09:31;7.77;;;2.03;;
211;SDS011;16228;48.800;9.002;2023-07-31T06:11:58;3.13;;;1.93;;
211;SDS011;16228;48.800;9.002;2023-07-31T06:14:25;2.80;;;1.53;;
211;SDS011;16228;48.800;9.002;2023-07-31T06:16:53;4.10;;;1.60;;
211;SDS011;16228;48.800;9.002;2023-07-31T06:19:20;3.03;;;1.60;;
211;SDS011;16228;48.800;9.002;2023-07-31T06:21:47;4.13;;;1.83;;
211;SDS011;16228;48.800;9.002;2023-07-31T06:24:14;2.87;;;1.80;;
211;SDS011;16228;48.800;9.002;2023-07-31T06:26:44;4.20;;;1.93;;
211;SDS011;16228;48.800;9.002;2023-07-31T06:29:11;2.47;;;1.57;;
211;SDS011;16228;48.800;9.002;2023-07-31T06:31:38;4.67;;;1.67;;
211;SDS011;16228;48.800;9.002;2023-07-31T06:34:06;2.73;;;1.90;;
211;SDS011;16228;48.800;9.002;2023-07-31T06:36:33;2.97;;;1.73;;
211;SDS011;16228;48.800;9.002;2023-07-31T06:39:00;5.77;;;1.90;;
211;SDS011;16228;48.800;9.002;2023-07-31T06:41:27;2.97;;;1.77;;
211;SDS011;16228;48.800;9.002;2023-07-31T06:43:54;4.47;;;1.50;;
211;SDS011;16228;48.800;9.002;2023-07-31T06:46:21;3.70;;;1.50;;
211;SDS011;16228;48.800;9.002;2023-07-31T06:48:48;4.90;;;1.90;;
211;SDS011;16228;48.800;9.002;2023-07-31T06:51:16;3.53;;;1.70;;
211;SDS011;16228;48.800;9.002;2023-07-31T06:53:43;2.90;;;1.80;;
211;SDS011;16228;48.800;9.002;2023-07-31T06:56:10;3.23;;;1.70;;
211;SDS011;16228;48.800;9.002;2023-07-31T06:58:37;3.77;;;1.90;;
211;SDS011;16228;48.800;9.002;2023-07-31T07:01:05;4.03;;;1.80;;
211;SDS011;16228;48.800;9.002;2023-07-31T07:03:32;4.93;;;1.93;;
211;SDS011;16228;48.800;9.002;2023-07-31T07:05:59;4.20;;;2.10;;
211;SDS011;16228;48.800;9.002;2023-07-31T07:08:27;4.33;;;1.60;;
211;SDS011;16228;48.800;9.002;2023-07-31T07:10:54;4.70;;;2.17;;
211;SDS011;16228;48.800;9.002;2023-07-31T07:13:21;3.53;;;1.70;;
211;SDS011;16228;48.800;9.002;2023-07-31T07:15:48;4.53;;;2.10;;
211;SDS011;16228;48.800;9.002;2023-07-31T07:18:16;4.67;;;2.60;;
211;SDS011;16228;48.800;9.002;2023-07-31T07:20:46;3.07;;;1.70;;
211;SDS011;16228;48.800;9.002;2023-07-31T07:23:13;3.63;;;1.97;;
211;SDS011;16228;48.800;9.002;2023-07-31T07:25:42;2.20;;;1.60;;
211;SDS011;16228;48.800;9.002;2023-07-31T07:28:09;5.10;;;2.03;;
211;SDS011;16228;48.800;9.002;2023-07-31T07:30:36;4.97;;;2.43;;
211;SDS011;16228;48.800;9.002;2023-07-31T07:33:03;3.90;;;2.03;;
211;SDS011;16228;48.800;9.002;2023-07-31T07:35:30;3.93;;;1.60;;
211;SDS011;16228;48.800;9.002;2023-07-31T07:37:59;3.83;;;1.87;;
211;SDS011;16228;48.800;9.002;2023-07-31T07:40:26;3.87;;;2.30;;
211;SDS011;16228;48.800;9.002;2023-07-31T07:42:54;3.30;;;1.93;;
211;SDS011;16228;48.800;9.002;2023-07-31T07:45:21;4.97;;;2.07;;
211;SDS011;16228;48.800;9.002;2023-07-31T07:47:48;3.90;;;1.83;;
211;SDS011;16228;48.800;9.002;2023-07-31T07:50:15;2.83;;;1.70;;
211;SDS011;16228;48.800;9.002;2023-07-31T07:52:42;4.67;;;2.07;;
211;SDS011;16228;48.800;9.002;2023-07-31T07:55:09;2.30;;;1.50;;
211;SDS011;16228;48.800;9.002;2023-07-31T07:57:36;3.50;;;1.73;;
211;SDS011;16228;48.800;9.002;2023-07-31T08:00:05;2.40;;;1.90;;
211;SDS011;16228;48.800;9.002;2023-07-31T08:02:33;3.33;;;1.93;;
211;SDS011;16228;48.800;9.002;2023-07-31T08:04:59;5.40;;;2.73;;
211;SDS011;16228;48.800;9.002;2023-07-31T08:07:26;2.67;;;2.03;;
211;SDS011;16228;48.800;9.002;2023-07-31T08:09:53;3.57;;;2.10;;
211;SDS011;16228;48.800;9.002;2023-07-31T08:12:20;4.57;;;2.00;;
211;SDS011;16228;48.800;9.002;2023-07-31T08:14:47;6.37;;;2.13;;
211;SDS011;16228;48.800;9.002;2023-07-31T08:17:15;3.37;;;2.13;;
211;SDS011;16228;48.800;9.002;2023-07-31T08:19:42;2.80;;;1.83;;
211;SDS011;16228;48.800;9.002;2023-07-31T08:22:11;3.40;;;2.00;;
211;SDS011;16228;48.800;9.002;2023-07-31T08:24:38;3.97;;;2.57;;
211;SDS011;16228;48.800;9.002;2023-07-31T08:27:05;3.43;;;1.73;;
211;SDS011;16228;48.800;9.002;2023-07-31T08:29:32;5.53;;;2.40;;
211;SDS011;16228;48.800;9.002;2023-07-31T08:31:59;7.90;;;2.20;;
211;SDS011;16228;48.800;9.002;2023-07-31T08:34:28;3.27;;;2.13;;
211;SDS011;16228;48.800;9.002;2023-07-31T08:36:54;5.33;;;2.00;;
211;SDS011;16228;48.800;9.002;2023-07-31T08:39:22;4.93;;;2.10;;
211;SDS011;16228;48.800;9.002;2023-07-31T08:41:49;5.17;;;2.30;;
211;SDS011;16228;48.800;9.002;2023-07-31T08:44:16;2.87;;;2.00;;
211;SDS011;16228;48.800;9.002;2023-07-31T08:46:45;4.33;;;2.07;;
211;SDS011;16228;48.800;9.002;2023-07-31T08:49:13;4.73;;;2.17;;
211;SDS011;16228;48.800;9.002;2023-07-31T08:51:44;4.20;;;1.93;;
211;SDS011;16228;48.800;9.002;2023-07-31T08:54:13;6.07;;;2.17;;
211;SDS011;16228;48.800;9.002;2023-07-31T08:56:39;2.57;;;2.13;;
211;SDS011;16228;48.800;9.002;2023-07-31T08:59:07;6.93;;;2.40;;
211;SDS011;16228;48.800;9.002;2023-07-31T09:01:37;4.23;;;1.80;;
211;SDS011;16228;48.800;9.002;2023-07-31T09:04:09;3.03;;;2.00;;
211;SDS011;16228;48.800;9.002;2023-07-31T09:06:38;4.40;;;2.13;;
211;SDS011;16228;48.800;9.002;2023-07-31T09:09:08;4.80;;;2.40;;
211;SDS011;16228;48.800;9.002;2023-07-31T09:11:35;4.53;;;2.50;;
211;SDS011;16228;48.800;9.002;2023-07-31T09:14:02;3.53;;;2.20;;
211;SDS011;16228;48.800;9.002;2023-07-31T09:16:34;3.47;;;1.93;;
211;SDS011;16228;48.800;9.002;2023-07-31T09:19:01;3.70;;;2.57;;
211;SDS011;16228;48.800;9.002;2023-07-31T09:21:28;3.17;;;2.10;;
211;SDS011;16228;48.800;9.002;2023-07-31T09:23:55;3.23;;;2.10;;
211;SDS011;16228;48.800;9.002;2023-07-31T09:26:30;5.00;;;2.60;;
211;SDS011;16228;48.800;9.002;2023-07-31T09:28:58;4.20;;;2.40;;
211;SDS011;16228;48.800;9.002;2023-07-31T09:31:32;8.80;;;2.50;;
211;SDS011;16228;48.800;9.002;2023-07-31T09:34:04;6.13;;;3.00;;
211;SDS011;16228;48.800;9.002;2023-07-31T09:36:31;6.47;;;3.53;;
211;SDS011;16228;48.800;9.002;2023-07-31T09:39:01;4.50;;;2.87;;
211;SDS011;16228;48.800;9.002;2023-07-31T09:41:30;4.70;;;2.07;;
211;SDS011;16228;48.800;9.002;2023-07-31T09:44:02;6.43;;;2.50;;
211;SDS011;16228;48.800;9.002;2023-07-31T09:46:29;3.83;;;1.90;;
211;SDS011;16228;48.800;9.002;2023-07-31T09:49:04;5.53;;;2.90;;
211;SDS011;16228;48.800;9.002;2023-07-31T09:51:32;3.03;;;2.20;;
211;SDS011;16228;48.800;9.002;2023-07-31T09:54:03;3.87;;;2.40;;
211;SDS011;16228;48.800;9.002;2023-07-31T09:56:41;5.27;;;2.30;;
211;SDS011;16228;48.800;9.002;2023-07-31T09:59:11;3.57;;;2.63;;
211;SDS011;16228;48.800;9.002;2023-07-31T10:01:39;3.47;;;2.40;;
211;SDS011;16228;48.800;9.002;2023-07-31T10:04:08;4.73;;;2.33;;
211;SDS011;16228;48.800;9.002;2023-07-31T10:06:36;4.47;;;2.73;;
211;SDS011;16228;48.800;9.002;2023-07-31T10:09:05;5.43;;;2.73;;
211;SDS011;16228;48.800;9.002;2023-07-31T10:11:34;3.67;;;2.43;;
211;SDS011;16228;48.800;9.002;2023-07-31T10:14:10;6.60;;;2.40;;
211;SDS011;16228;48.800;9.002;2023-07-31T10:16:38;5.30;;;2.30;;
211;SDS011;16228;48.800;9.002;2023-07-31T10:19:06;3.47;;;2.08;;
211;SDS011;16228;48.800;9.002;2023-07-31T10:21:34;3.63;;;2.28;;
211;SDS011;16228;48.800;9.002;2023-07-31T10:24:03;4.28;;;2.17;;
211;SDS011;16228;48.800;9.002;2023-07-31T10:26:30;3.13;;;1.98;;
211;SDS011;16228;48.800;9.002;2023-07-31T10:28:58;5.90;;;2.58;;
211;SDS011;16228;48.800;9.002;2023-07-31T10:31:27;3.13;;;2.40;;
211;SDS011;16228;48.800;9.002;2023-07-31T10:33:55;3.42;;;2.03;;
211;SDS011;16228;48.800;9.002;2023-07-31T10:36:23;6.10;;;2.55;;
211;SDS011;16228;48.800;9.002;2023-07-31T10:38:50;3.80;;;2.28;;
211;SDS011;16228;48.800;9.002;2023-07-31T10:41:17;2.92;;;2.50;;
211;SDS011;16228;48.800;9.002;2023-07-31T10:43:45;3.25;;;2.28;;
211;SDS011;16228;48.800;9.002;2023-07-31T10:46:13;3.53;;;2.30;;
211;SDS011;16228;48.800;9.002;2023-07-31T10:48:41;2.80;;;2.50;;
211;SDS011;16228;48.800;9.002;2023-07-31T10:51:09;6.28;;;2.65;;
211;SDS011;16228;48.800;9.002;2023-07-31T10:53:37;3.72;;;2.53;;
211;SDS011;16228;48.800;9.002;2023-07-31T10:56:07;4.25;;;2.50;;
211;SDS011;16228;48.800;9.002;2023-07-31T10:58:37;5.03;;;2.53;;
211;SDS011;16228;48.800;9.002;2023-07-31T11:01:05;3.70;;;3.10;;
211;SDS011;16228;48.800;9.002;2023-07-31T11:03:43;5.00;;;2.80;;
211;SDS011;16228;48.800;9.002;2023-07-31T11:06:13;7.40;;;3.13;;
211;SDS011;16228;48.800;9.002;2023-07-31T11:08:41;3.15;;;2.70;;
211;SDS011;16228;48.800;9.002;2023-07-31T11:11:10;3.97;;;2.63;;
211;SDS011;16228;48.800;9.002;2023-07-31T11:13:42;4.40;;;3.00;;
211;SDS011;16228;48.800;9.002;2023-07-31T11:16:10;5.00;;;2.80;;
211;SDS011;16228;48.800;9.002;2023-07-31T11:18:38;4.70;;;3.07;;
211;SDS011;16228;48.800;9.002;2023-07-31T11:21:08;5.87;;;3.83;;
211;SDS011;16228;48.800;9.002;2023-07-31T11:23:38;3.67;;;2.53;;
211;SDS011;16228;48.800;9.002;2023-07-31T11:26:05;4.97;;;3.30;;
211;SDS011;16228;48.800;9.002;2023-07-31T11:28:33;3.47;;;2.43;;
211;SDS011;16228;48.800;9.002;2023-07-31T11:31:00;3.07;;;2.70;;
211;SDS011;16228;48.800;9.002;2023-07-31T11:33:28;5.80;;;3.43;;
211;SDS011;16228;48.800;9.002;2023-07-31T11:35:55;4.17;;;2.53;;
211;SDS011;16228;48.800;9.002;2023-07-31T11:38:24;5.13;;;2.60;;
211;SDS011;16228;48.800;9.002;2023-07-31T11:40:52;6.27;;;3.00;;
211;SDS011;16228;48.800;9.002;2023-07-31T11:43:20;3.70;;;3.00;;
211;SDS011;16228;48.800;9.002;2023-07-31T11:45:48;5.23;;;3.37;;
211;SDS011;16228;48.800;9.002;2023-07-31T11:48:19;5.53;;;2.87;;
211;SDS011;16228;48.800;9.002;2023-07-31T11:50:47;3.37;;;2.37;;
211;SDS011;16228;48.800;9.002;2023-07-31T11:53:16;3.87;;;3.07;;
211;SDS011;16228;48.800;9.002;2023-07-31T11:55:46;6.20;;;2.50;;
211;SDS011;16228;48.800;9.002;2023-07-31T11:58:14;6.43;;;3.37;;
211;SDS011;16228;48.800;9.002;2023-07-31T12:00:42;4.90;;;2.63;;
211;SDS011;16228;48.800;9.002;2023-07-31T12:03:09;4.37;;;2.90;;
211;SDS011;16228;48.800;9.002;2023-07-31T12:05:37;5.13;;;2.93;;
211;SDS011;16228;48.800;9.002;2023-07-31T12:08:08;4.57;;;2.80;;
211;SDS011;16228;48.800;9.002;2023-07-31T12:10:36;4.63;;;2.60;;
211;SDS011;16228;48.800;9.002;2023-07-31T12:13:07;3.67;;;2.90;;
211;SDS011;16228;48.800;9.002;2023-07-31T12:15:39;3.60;;;2.40;;
211;SDS011;16228;48.800;9.002;2023-07-31T12:18:08;6.57;;;3.10;;
211;SDS011;16228;48.800;9.002;2023-07-31T12:20:40;4.93;;;2.90;;
211;SDS011;16228;48.800;9.002;2023-07-31T12:23:12;3.20;;;2.90;;
211;SDS011;16228;48.800;9.002;2023-07-31T12:25:44;4.13;;;2.73;;
211;SDS011;16228;48.800;9.002;2023-07-31T12:28:12;3.70;;;2.87;;
211;SDS011;16228;48.800;9.002;2023-07-31T12:30:40;5.37;;;2.70;;
211;SDS011;16228;48.800;9.002;2023-07-31T12:33:12;4.00;;;3.37;;
211;SDS011;16228;48.800;9.002;2023-07-31T12:35:41;4.20;;;2.87;;
211;SDS011;16228;48.800;9.002;2023-07-31T12:38:13;5.63;;;3.37;;
211;SDS011;16228;48.800;9.002;2023-07-31T12:40:41;3.30;;;2.77;;
211;SDS011;16228;48.800;9.002;2023-07-31T12:43:08;5.43;;;3.13;;
211;SDS011;16228;48.800;9.002;2023-07-31T12:45:36;4.53;;;2.43;;
211;SDS011;16228;48.800;9.002;2023-07-31T12:48:03;4.13;;;2.40;;
211;SDS011;16228;48.800;9.002;2023-07-31T12:50:30;4.07;;;2.33;;
211;SDS011;16228;48.800;9.002;2023-07-31T12:52:57;4.40;;;2.70;;
211;SDS011;16228;48.800;9.002;2023-07-31T12:55:24;4.17;;;2.53;;
211;SDS011;16228;48.800;9.002;2023-07-31T12:57:51;4.83;;;2.43;;
211;SDS011;16228;48.800;9.002;2023-07-31T13:00:18;3.20;;;2.40;;
211;SDS011;16228;48.800;9.002;2023-07-31T13:02:47;8.47;;;3.00;;
211;SDS011;16228;48.800;9.002;2023-07-31T13:05:14;3.60;;;2.20;;
211;SDS011;16228;48.800;9.002;2023-07-31T13:07:41;5.17;;;2.63;;
211;SDS011;16228;48.800;9.002;2023-07-31T13:10:08;3.97;;;2.50;;
211;SDS011;16228;48.800;9.002;2023-07-31T13:12:35;4.33;;;2.63;;
211;SDS011;16228;48.800;9.002;2023-07-31T13:15:03;2.47;;;1.90;;
211;SDS011;16228;48.800;9.002;2023-07-31T13:17:30;4.57;;;3.13;;
211;SDS011;16228;48.800;9.002;2023-07-31T13:19:58;2.93;;;2.20;;
211;SDS011;16228;48.800;9.002;2023-07-31T13:22:26;2.43;;;2.10;;
211;SDS011;16228;48.800;9.002;2023-07-31T13:24:52;3.33;;;2.67;;
211;SDS011;16228;48.800;9.002;2023-07-31T13:27:19;5.70;;;2.93;;
211;SDS011;16228;48.800;9.002;2023-07-31T13:29:47;6.60;;;2.60;;
211;SDS011;16228;48.800;9.002;2023-07-31T13:32:15;4.23;;;2.27;;
211;SDS011;16228;48.800;9.002;2023-07-31T13:34:42;3.20;;;2.50;;
211;SDS011;16228;48.800;9.002;2023-07-31T13:37:11;5.30;;;2.80;;
211;SDS011;16228;48.800;9.002;2023-07-31T13:39:38;6.07;;;2.90;;
211;SDS011;16228;48.800;9.002;2023-07-31T13:42:05;5.10;;;2.50;;
211;SDS011;16228;48.800;9.002;2023-07-31T13:44:33;4.33;;;2.73;;
211;SDS011;16228;48.800;9.002;2023-07-31T13:47:00;5.73;;;2.80;;
211;SDS011;16228;48.800;9.002;2023-07-31T13:49:27;3.40;;;2.60;;
211;SDS011;16228;48.800;9.002;2023-07-31T13:51:54;2.40;;;2.10;;
211;SDS011;16228;48.800;9.002;2023-07-31T13:54:23;4.40;;;2.00;;
211;SDS011;16228;48.800;9.002;2023-07-31T13:56:51;4.23;;;2.97;;
211;SDS011;16228;48.800;9.002;2023-07-31T13:59:18;4.60;;;2.80;;
211;SDS011;16228;48.800;9.002;2023-07-31T14:01:45;3.37;;;2.43;;
211;SDS011;16228;48.800;9.002;2023-07-31T14:04:13;3.20;;;2.90;;
211;SDS011;16228;48.800;9.002;2023-07-31T14:06:40;3.90;;;2.80;;
211;SDS011;16228;48.800;9.002;2023-07-31T14:09:07;3.93;;;2.80;;
211;SDS011;16228;48.800;9.002;2023-07-31T14:11:35;5.97;;;3.10;;
211;SDS011;16228;48.800;9.002;2023-07-31T14:14:02;5.87;;;2.60;;
211;SDS011;16228;48.800;9.002;2023-07-31T14:16:29;3.10;;;2.90;;
211;SDS011;16228;48.800;9.002;2023-07-31T14:18:56;3.87;;;2.80;;
211;SDS011;16228;48.800;9.002;2023-07-31T14:21:25;2.47;;;2.23;;
211;SDS011;16228;48.800;9.002;2023-07-31T14:23:52;5.27;;;3.37;;
211;SDS011;16228;48.800;9.002;2023-07-31T14:26:19;3.03;;;2.50;;
211;SDS011;16228;48.800;9.002;2023-07-31T14:28:47;3.37;;;2.70;;
211;SDS011;16228;48.800;9.002;2023-07-31T14:31:14;3.53;;;2.93;;
211;SDS011;16228;48.800;9.002;2023-07-31T14:33:41;2.50;;;2.00;;
211;SDS011;16228;48.800;9.002;2023-07-31T14:36:08;3.83;;;2.13;;
211;SDS011;16228;48.800;9.002;2023-07-31T14:38:35;3.07;;;2.40;;
211;SDS011;16228;48.800;9.002;2023-07-31T14:41:02;3.33;;;2.47;;
211;SDS011;16228;48.800;9.002;2023-07-31T14:43:29;3.20;;;2.50;;
211;SDS011;16228;48.800;9.002;2023-07-31T14:45:57;4.00;;;2.33;;
211;SDS011;16228;48.800;9.002;2023-07-31T14:48:25;3.70;;;2.80;;
211;SDS011;16228;48.800;9.002;2023-07-31T14:50:52;4.83;;;2.80;;
211;SDS011;16228;48.800;9.002;2023-07-31T14:53:20;3.30;;;2.20;;
211;SDS011;16228;48.800;9.002;2023-07-31T14:55:47;2.60;;;2.17;;
211;SDS011;16228;48.800;9.002;2023-07-31T14:58:15;2.20;;;2.00;;
211;SDS011;16228;48.800;9.002;2023-07-31T15:00:43;3.40;;;3.10;;
211;SDS011;16228;48.800;9.002;2023-07-31T15:03:11;5.10;;;2.60;;
211;SDS011;16228;48.800;9.002;2023-07-31T15:05:38;4.40;;;2.63;;
211;SDS011;16228;48.800;9.002;2023-07-31T15:08:05;7.13;;;2.57;;
211;SDS011;16228;48.800;9.002;2023-07-31T15:10:32;5.10;;;2.47;;
211;SDS011;16228;48.800;9.002;2023-07-31T15:12:59;3.07;;;2.43;;
211;SDS011;16228;48.800;9.002;2023-07-31T15:15:27;2.90;;;2.30;;
211;SDS011;16228;48.800;9.002;2023-07-31T15:17:54;4.13;;;2.13;;